AAL1149 KAUS-KDFW
Flight info
| Callsign | AAL1149 |
|---|---|
| Flight time | 0h 42m |
| Altitude | 28000 |
| Route | ELOEL3 FORSS GUTZZ BOOVE7 |
| Aircraft | B738/M-SDE2E3FGHIRWXY/LB1 |
Departure
| Time | 2026-05-04 12:09 |
|---|---|
| Airport | Austin Bergstrom International Airport (KAUS) |
Arrival
| Time | 2026-05-04 12:51 |
|---|---|
| Airport | Dallas Fort Worth International Airport (KDFW) |
| Time | Latitude | Longitude | Altitude | Speed | Heading |
|---|---|---|---|---|---|
| 2026-05-04 11:49 | 30.20168 | -97.66406 | 526 ft | 0 kts | 358° |
| 2026-05-04 12:02 | 30.20091 | -97.66438 | 526 ft | 0 kts | 87° |
| 2026-05-04 12:05 | 30.20090 | -97.66431 | 526 ft | 4 kts | 96° |
| 2026-05-04 12:06 | 30.20038 | -97.66392 | 526 ft | 15 kts | 177° |
| 2026-05-04 12:06 | 30.19933 | -97.66376 | 526 ft | 16 kts | 141° |
| 2026-05-04 12:06 | 30.19916 | -97.66247 | 526 ft | 21 kts | 89° |
| 2026-05-04 12:06 | 30.19919 | -97.66091 | 526 ft | 16 kts | 90° |
| 2026-05-04 12:07 | 30.19922 | -97.65966 | 526 ft | 15 kts | 88° |
| 2026-05-04 12:07 | 30.19975 | -97.65906 | 526 ft | 11 kts | 359° |
| 2026-05-04 12:07 | 30.20085 | -97.65909 | 526 ft | 18 kts | 359° |
| 2026-05-04 12:07 | 30.20213 | -97.65912 | 526 ft | 18 kts | 359° |
| 2026-05-04 12:08 | 30.20334 | -97.65913 | 527 ft | 15 kts | 11° |
| 2026-05-04 12:08 | 30.20372 | -97.65833 | 528 ft | 12 kts | 95° |
| 2026-05-04 12:08 | 30.20307 | -97.65787 | 527 ft | 16 kts | 177° |
| 2026-05-04 12:08 | 30.20003 | -97.65779 | 525 ft | 84 kts | 179° |
| 2026-05-04 12:09 | 30.19163 | -97.65757 | 540 ft | 156 kts | 179° |
| 2026-05-04 12:09 | 30.18006 | -97.65732 | 1176 ft | 174 kts | 179° |
| 2026-05-04 12:09 | 30.16810 | -97.66040 | 2082 ft | 183 kts | 211° |
| 2026-05-04 12:09 | 30.15823 | -97.67128 | 2654 ft | 212 kts | 238° |
| 2026-05-04 12:10 | 30.15447 | -97.68867 | 3139 ft | 226 kts | 280° |
| 2026-05-04 12:10 | 30.16059 | -97.70425 | 4043 ft | 222 kts | 311° |
| 2026-05-04 12:10 | 30.17414 | -97.71381 | 4738 ft | 246 kts | 336° |
| 2026-05-04 12:10 | 30.19164 | -97.71930 | 5328 ft | 272 kts | 343° |
| 2026-05-04 12:11 | 30.21064 | -97.72393 | 6145 ft | 286 kts | 345° |
| 2026-05-04 12:11 | 30.23047 | -97.72855 | 7098 ft | 291 kts | 346° |
| 2026-05-04 12:11 | 30.25028 | -97.73321 | 8237 ft | 292 kts | 346° |
| 2026-05-04 12:11 | 30.27023 | -97.73800 | 9257 ft | 294 kts | 345° |
| 2026-05-04 12:12 | 30.29026 | -97.74292 | 10265 ft | 295 kts | 345° |
| 2026-05-04 12:12 | 30.31088 | -97.74811 | 10920 ft | 310 kts | 344° |
| 2026-05-04 12:12 | 30.33209 | -97.75353 | 11391 ft | 330 kts | 344° |
| 2026-05-04 12:12 | 30.35589 | -97.75966 | 11588 ft | 356 kts | 344° |
| 2026-05-04 12:13 | 30.38071 | -97.76606 | 11936 ft | 373 kts | 344° |
| 2026-05-04 12:14 | 30.56339 | -97.81320 | 16762 ft | 398 kts | 342° |
| 2026-05-04 12:15 | 30.59054 | -97.82026 | 17371 ft | 401 kts | 342° |
| 2026-05-04 12:15 | 30.61789 | -97.82737 | 17958 ft | 404 kts | 342° |
| 2026-05-04 12:15 | 30.64545 | -97.83453 | 18509 ft | 408 kts | 342° |
| 2026-05-04 12:15 | 30.67327 | -97.84176 | 19061 ft | 410 kts | 342° |
| 2026-05-04 12:16 | 30.70121 | -97.84903 | 19634 ft | 413 kts | 342° |
| 2026-05-04 12:16 | 30.72933 | -97.85634 | 20188 ft | 414 kts | 342° |
| 2026-05-04 12:16 | 30.75690 | -97.86459 | 20687 ft | 414 kts | 338° |
| 2026-05-04 12:16 | 30.78439 | -97.87474 | 21181 ft | 415 kts | 337° |
| 2026-05-04 12:17 | 30.81193 | -97.88538 | 21643 ft | 418 kts | 337° |
| 2026-05-04 12:17 | 30.83967 | -97.89603 | 22095 ft | 420 kts | 337° |
| 2026-05-04 12:17 | 30.86760 | -97.90654 | 22515 ft | 423 kts | 337° |
| 2026-05-04 12:17 | 30.89568 | -97.91704 | 22901 ft | 425 kts | 337° |
| 2026-05-04 12:18 | 30.92309 | -97.92961 | 23298 ft | 423 kts | 330° |
| 2026-05-04 12:18 | 30.94936 | -97.94511 | 23689 ft | 423 kts | 328° |
| 2026-05-04 12:18 | 30.97560 | -97.96109 | 24064 ft | 425 kts | 328° |
| 2026-05-04 12:18 | 31.00187 | -97.97706 | 24423 ft | 427 kts | 328° |
| 2026-05-04 12:19 | 31.02837 | -97.99298 | 24795 ft | 428 kts | 328° |
| 2026-05-04 12:19 | 31.05500 | -98.00881 | 25153 ft | 430 kts | 329° |
| 2026-05-04 12:19 | 31.08138 | -98.02440 | 25503 ft | 431 kts | 328° |
| 2026-05-04 12:19 | 31.10823 | -98.04026 | 25845 ft | 432 kts | 328° |
| 2026-05-04 12:20 | 31.13489 | -98.05600 | 26488 ft | 424 kts | 328° |
| 2026-05-04 12:20 | 31.16114 | -98.07107 | 27236 ft | 419 kts | 330° |
| 2026-05-04 12:20 | 31.18853 | -98.08278 | 27782 ft | 422 kts | 338° |
| 2026-05-04 12:20 | 31.21737 | -98.09034 | 28132 ft | 427 kts | 341° |
| 2026-05-04 12:21 | 31.27581 | -98.10452 | 28130 ft | 428 kts | 341° |
| 2026-05-04 12:21 | 31.33382 | -98.11905 | 28112 ft | 426 kts | 340° |
| 2026-05-04 12:22 | 31.39166 | -98.13380 | 28087 ft | 425 kts | 341° |
| 2026-05-04 12:22 | 31.42126 | -98.13825 | 28061 ft | 437 kts | 352° |
| 2026-05-04 12:22 | 31.45191 | -98.13461 | 28074 ft | 446 kts | 359° |
| 2026-05-04 12:23 | 31.51333 | -98.12418 | 28040 ft | 445 kts | 359° |
| 2026-05-04 12:23 | 31.57423 | -98.11463 | 28023 ft | 444 kts | 359° |
| 2026-05-04 12:24 | 31.63558 | -98.10534 | 28006 ft | 446 kts | 1° |
| 2026-05-04 12:24 | 31.66589 | -98.09495 | 27997 ft | 465 kts | 17° |
| 2026-05-04 12:24 | 31.69438 | -98.07598 | 28014 ft | 473 kts | 22° |
| 2026-05-04 12:25 | 31.72255 | -98.05587 | 27998 ft | 474 kts | 22° |
| 2026-05-04 12:25 | 31.75071 | -98.03584 | 28001 ft | 474 kts | 22° |
| 2026-05-04 12:25 | 31.77901 | -98.01603 | 27996 ft | 473 kts | 22° |
| 2026-05-04 12:25 | 31.80743 | -97.99642 | 27886 ft | 474 kts | 21° |
| 2026-05-04 12:26 | 31.83566 | -97.97701 | 27750 ft | 459 kts | 21° |
| 2026-05-04 12:26 | 31.86276 | -97.95835 | 27522 ft | 443 kts | 21° |
| 2026-05-04 12:26 | 31.88917 | -97.94046 | 27048 ft | 435 kts | 20° |
| 2026-05-04 12:26 | 31.91540 | -97.92316 | 26560 ft | 430 kts | 20° |
| 2026-05-04 12:27 | 31.94105 | -97.90639 | 26076 ft | 424 kts | 20° |
| 2026-05-04 12:27 | 31.96674 | -97.88960 | 25593 ft | 423 kts | 20° |
| 2026-05-04 12:27 | 31.99279 | -97.87260 | 25110 ft | 432 kts | 20° |
| 2026-05-04 12:27 | 32.01891 | -97.85541 | 24583 ft | 427 kts | 21° |
| 2026-05-04 12:28 | 32.04467 | -97.83835 | 24098 ft | 421 kts | 21° |
| 2026-05-04 12:28 | 32.07003 | -97.82151 | 23600 ft | 417 kts | 21° |
| 2026-05-04 12:28 | 32.09523 | -97.80481 | 23115 ft | 412 kts | 21° |
| 2026-05-04 12:28 | 32.12012 | -97.78832 | 22625 ft | 409 kts | 22° |
| 2026-05-04 12:29 | 32.14506 | -97.77181 | 22145 ft | 412 kts | 22° |
| 2026-05-04 12:29 | 32.17003 | -97.75524 | 21655 ft | 410 kts | 22° |
| 2026-05-04 12:29 | 32.19475 | -97.73869 | 21162 ft | 405 kts | 22° |
| 2026-05-04 12:29 | 32.21911 | -97.72237 | 20689 ft | 399 kts | 22° |
| 2026-05-04 12:30 | 32.24289 | -97.70678 | 20226 ft | 394 kts | 21° |
| 2026-05-04 12:30 | 32.26719 | -97.69226 | 19772 ft | 389 kts | 20° |
| 2026-05-04 12:30 | 32.29143 | -97.67828 | 19311 ft | 387 kts | 20° |
| 2026-05-04 12:30 | 32.31576 | -97.66425 | 18852 ft | 390 kts | 20° |
| 2026-05-04 12:31 | 32.34005 | -97.65004 | 18381 ft | 388 kts | 21° |
| 2026-05-04 12:31 | 32.36391 | -97.63592 | 18152 ft | 377 kts | 21° |
| 2026-05-04 12:31 | 32.38657 | -97.62119 | 17899 ft | 371 kts | 30° |
| 2026-05-04 12:31 | 32.40585 | -97.60042 | 17517 ft | 376 kts | 40° |
| 2026-05-04 12:32 | 32.42419 | -97.57836 | 17099 ft | 374 kts | 40° |
| 2026-05-04 12:32 | 32.46099 | -97.53545 | 16265 ft | 373 kts | 39° |
| 2026-05-04 12:32 | 32.47963 | -97.51417 | 15845 ft | 370 kts | 39° |
| 2026-05-04 12:33 | 32.49806 | -97.49315 | 15429 ft | 365 kts | 39° |
| 2026-05-04 12:33 | 32.51628 | -97.47237 | 15011 ft | 362 kts | 39° |
| 2026-05-04 12:33 | 32.53428 | -97.45182 | 14606 ft | 357 kts | 39° |
| 2026-05-04 12:33 | 32.55204 | -97.43152 | 14328 ft | 351 kts | 39° |
| 2026-05-04 12:34 | 32.56945 | -97.41157 | 14193 ft | 344 kts | 39° |
| 2026-05-04 12:34 | 32.58662 | -97.39193 | 13844 ft | 343 kts | 39° |
| 2026-05-04 12:34 | 32.60380 | -97.37228 | 13538 ft | 342 kts | 39° |
| 2026-05-04 12:34 | 32.62046 | -97.35314 | 13408 ft | 332 kts | 39° |
| 2026-05-04 12:35 | 32.63682 | -97.33433 | 13243 ft | 323 kts | 39° |
| 2026-05-04 12:35 | 32.65275 | -97.31603 | 13088 ft | 314 kts | 39° |
| 2026-05-04 12:35 | 32.66821 | -97.29828 | 12993 ft | 304 kts | 39° |
| 2026-05-04 12:35 | 32.68323 | -97.28103 | 12861 ft | 299 kts | 39° |
| 2026-05-04 12:36 | 32.69812 | -97.26394 | 12736 ft | 297 kts | 39° |
| 2026-05-04 12:36 | 32.71303 | -97.24684 | 12617 ft | 297 kts | 39° |
| 2026-05-04 12:36 | 32.72780 | -97.22985 | 12478 ft | 292 kts | 39° |
| 2026-05-04 12:36 | 32.74221 | -97.21326 | 12339 ft | 284 kts | 39° |
| 2026-05-04 12:37 | 32.75607 | -97.19728 | 12209 ft | 277 kts | 39° |
| 2026-05-04 12:37 | 32.76969 | -97.18158 | 12085 ft | 270 kts | 38° |
| 2026-05-04 12:37 | 32.78479 | -97.16977 | 11986 ft | 252 kts | 9° |
| 2026-05-04 12:37 | 32.80187 | -97.16657 | 11792 ft | 249 kts | 357° |
| 2026-05-04 12:38 | 32.81922 | -97.16616 | 11564 ft | 249 kts | 355° |
| 2026-05-04 12:38 | 32.83651 | -97.16621 | 11323 ft | 249 kts | 354° |
| 2026-05-04 12:38 | 32.85381 | -97.16627 | 11078 ft | 248 kts | 354° |
| 2026-05-04 12:38 | 32.87108 | -97.16622 | 10862 ft | 247 kts | 355° |
| 2026-05-04 12:39 | 32.88828 | -97.16616 | 10643 ft | 247 kts | 355° |
| 2026-05-04 12:39 | 32.90543 | -97.16606 | 10426 ft | 246 kts | 355° |
| 2026-05-04 12:39 | 32.92256 | -97.16591 | 10213 ft | 246 kts | 355° |
| 2026-05-04 12:39 | 32.93967 | -97.16571 | 10001 ft | 246 kts | 355° |
| 2026-05-04 12:40 | 32.95663 | -97.16553 | 9788 ft | 247 kts | 355° |
| 2026-05-04 12:40 | 32.97388 | -97.16532 | 9563 ft | 249 kts | 355° |
| 2026-05-04 12:40 | 32.99129 | -97.16515 | 9349 ft | 250 kts | 355° |
| 2026-05-04 12:40 | 33.00876 | -97.16495 | 9130 ft | 252 kts | 356° |
| 2026-05-04 12:41 | 33.02640 | -97.16476 | 8912 ft | 254 kts | 356° |
| 2026-05-04 12:41 | 33.04412 | -97.16458 | 8693 ft | 256 kts | 356° |
| 2026-05-04 12:41 | 33.06204 | -97.16437 | 8465 ft | 258 kts | 356° |
| 2026-05-04 12:41 | 33.08007 | -97.16411 | 8230 ft | 258 kts | 356° |
| 2026-05-04 12:42 | 33.09796 | -97.16389 | 8001 ft | 256 kts | 356° |
| 2026-05-04 12:42 | 33.11572 | -97.16371 | 7765 ft | 254 kts | 356° |
| 2026-05-04 12:42 | 33.13330 | -97.16351 | 7548 ft | 252 kts | 356° |
| 2026-05-04 12:42 | 33.15075 | -97.16331 | 7346 ft | 249 kts | 355° |
| 2026-05-04 12:43 | 33.16783 | -97.16312 | 7119 ft | 248 kts | 356° |
| 2026-05-04 12:43 | 33.18513 | -97.16292 | 6895 ft | 248 kts | 355° |
| 2026-05-04 12:43 | 33.20239 | -97.16238 | 6631 ft | 252 kts | 4° |
| 2026-05-04 12:43 | 33.21871 | -97.15390 | 6320 ft | 261 kts | 39° |
| 2026-05-04 12:44 | 33.22929 | -97.13654 | 6077 ft | 261 kts | 71° |
| 2026-05-04 12:44 | 33.23146 | -97.11556 | 5825 ft | 253 kts | 104° |
| 2026-05-04 12:44 | 33.22812 | -97.10247 | 5669 ft | 246 kts | 121° |
| 2026-05-04 12:44 | 33.21920 | -97.08541 | 5471 ft | 239 kts | 131° |
| 2026-05-04 12:45 | 33.20945 | -97.06952 | 5247 ft | 236 kts | 133° |
| 2026-05-04 12:45 | 33.19747 | -97.05713 | 4996 ft | 222 kts | 165° |
| 2026-05-04 12:45 | 33.18275 | -97.05467 | 4845 ft | 211 kts | 182° |
| 2026-05-04 12:45 | 33.16806 | -97.05390 | 4636 ft | 211 kts | 182° |
| 2026-05-04 12:46 | 33.15348 | -97.05355 | 4453 ft | 208 kts | 184° |
| 2026-05-04 12:46 | 33.13931 | -97.05350 | 4286 ft | 203 kts | 184° |
| 2026-05-04 12:46 | 33.12548 | -97.05355 | 4112 ft | 195 kts | 184° |
| 2026-05-04 12:46 | 33.11186 | -97.05364 | 4035 ft | 198 kts | 184° |
| 2026-05-04 12:47 | 33.09794 | -97.05371 | 4000 ft | 201 kts | 184° |
| 2026-05-04 12:47 | 33.08373 | -97.05378 | 3849 ft | 208 kts | 184° |
| 2026-05-04 12:47 | 33.06912 | -97.05386 | 3584 ft | 210 kts | 184° |
| 2026-05-04 12:47 | 33.05470 | -97.05392 | 3323 ft | 203 kts | 184° |
| 2026-05-04 12:48 | 33.04097 | -97.05397 | 3054 ft | 190 kts | 184° |
| 2026-05-04 12:48 | 33.02830 | -97.05404 | 2815 ft | 174 kts | 183° |
| 2026-05-04 12:48 | 33.01658 | -97.05411 | 2582 ft | 165 kts | 183° |
| 2026-05-04 12:48 | 33.00506 | -97.05419 | 2375 ft | 166 kts | 182° |
| 2026-05-04 12:49 | 32.99372 | -97.05424 | 2150 ft | 156 kts | 181° |
| 2026-05-04 12:49 | 32.98322 | -97.05429 | 1938 ft | 146 kts | 182° |
| 2026-05-04 12:49 | 32.97327 | -97.05434 | 1762 ft | 146 kts | 180° |
| 2026-05-04 12:49 | 32.96328 | -97.05439 | 1568 ft | 142 kts | 181° |
| 2026-05-04 12:50 | 32.95364 | -97.05442 | 1385 ft | 137 kts | 181° |
| 2026-05-04 12:50 | 32.94398 | -97.05452 | 1214 ft | 141 kts | 181° |
| 2026-05-04 12:50 | 32.93427 | -97.05454 | 1024 ft | 142 kts | 181° |
| 2026-05-04 12:50 | 32.92444 | -97.05463 | 841 ft | 141 kts | 181° |
| 2026-05-04 12:51 | 32.91458 | -97.05464 | 654 ft | 143 kts | 181° |
| 2026-05-04 12:51 | 32.90521 | -97.05469 | 615 ft | 123 kts | 179° |
| 2026-05-04 12:51 | 32.89855 | -97.05473 | 622 ft | 74 kts | 180° |
| 2026-05-04 12:51 | 32.89555 | -97.05382 | 624 ft | 24 kts | 149° |
| 2026-05-04 12:52 | 32.89427 | -97.05295 | 628 ft | 18 kts | 140° |
| 2026-05-04 12:52 | 32.89402 | -97.05215 | 618 ft | 8 kts | 92° |
| 2026-05-04 12:52 | 32.89402 | -97.05132 | 626 ft | 15 kts | 90° |
| 2026-05-04 12:52 | 32.89402 | -97.04983 | 627 ft | 17 kts | 90° |
| 2026-05-04 12:53 | 32.89464 | -97.04891 | 617 ft | 18 kts | 3° |
| 2026-05-04 12:53 | 32.89610 | -97.04889 | 622 ft | 24 kts | 0° |
| 2026-05-04 12:53 | 32.89780 | -97.04888 | 617 ft | 24 kts | 0° |
| 2026-05-04 12:53 | 32.89942 | -97.04887 | 622 ft | 23 kts | 0° |
| 2026-05-04 12:54 | 32.90087 | -97.04880 | 622 ft | 17 kts | 21° |
| 2026-05-04 12:54 | 32.90127 | -97.04752 | 618 ft | 18 kts | 79° |
| 2026-05-04 12:54 | 32.90136 | -97.04600 | 620 ft | 19 kts | 90° |
| 2026-05-04 12:54 | 32.90174 | -97.04497 | 626 ft | 12 kts | 5° |
| 2026-05-04 12:55 | 32.90240 | -97.04506 | 615 ft | 9 kts | 37° |
| 2026-05-04 12:55 | 32.90264 | -97.04480 | 615 ft | 0 kts | 43° |